Time;durP1;ratioP1;P1;durP2;ratioP2;P2;SDS_P1;SDS_P2;PMS_P1;PMS_P2;Temp;Humidity;BMP_temperature;BMP_pressure;BME280_temperature;BME280_humidity;BME280_pressure;Samples;Min_cycle;Max_cycle;Signal;HPM_P1;HPM_P2
2024/01/27 00:01:10;;;;;;;;;67.50;51.25;;;;;-144.24;100.00;114865.94;5034717;28;69408;-71
2024/01/27 00:03:36;;;;;;;;;68.50;52.75;;;;;-144.24;100.00;114865.94;5034582;28;45293;-72
2024/01/27 00:06:02;;;;;;;;;74.50;55.00;;;;;-144.24;100.00;114865.94;5017604;28;45496;-74
2024/01/27 00:08:27;;;;;;;;;69.75;54.75;;;;;-144.24;100.00;114865.94;5035199;28;45816;-72
2024/01/27 00:10:53;;;;;;;;;75.50;53.50;;;;;-144.24;100.00;114865.94;5017284;28;45524;-71
2024/01/27 00:13:18;;;;;;;;;72.75;55.25;;;;;-144.24;100.00;114865.94;5035313;28;45324;-71
2024/01/27 00:15:43;;;;;;;;;68.50;54.50;;;;;-144.24;100.00;114865.94;5017722;28;45578;-72
2024/01/27 00:18:09;;;;;;;;;70.75;55.50;;;;;-144.24;100.00;114865.94;5034717;28;60822;-74
2024/01/27 00:20:34;;;;;;;;;74.50;56.50;;;;;-144.24;100.00;114865.94;5016987;28;60157;-71
2024/01/27 00:22:59;;;;;;;;;72.75;56.25;;;;;-144.24;100.00;114865.94;5018400;28;45343;-73
2024/01/27 00:25:25;;;;;;;;;72.50;56.75;;;;;-144.24;100.00;114865.94;5035227;28;55552;-72
2024/01/27 00:27:50;;;;;;;;;73.75;54.00;;;;;-144.24;100.00;114865.94;5034501;28;68243;-71
2024/01/27 00:30:15;;;;;;;;;72.00;54.50;;;;;-144.24;100.00;114865.94;5034823;28;66341;-72
2024/01/27 00:32:41;;;;;;;;;73.00;55.75;;;;;-144.24;100.00;114865.94;5034598;28;62980;-72
2024/01/27 00:35:08;;;;;;;;;74.50;56.50;;;;;-144.24;100.00;114865.94;5034624;28;63728;-71
2024/01/27 00:37:33;;;;;;;;;74.00;51.50;;;;;-144.24;100.00;114865.94;5017271;28;48297;-72
2024/01/27 00:39:59;;;;;;;;;72.75;54.00;;;;;-144.24;100.00;114865.94;5036663;28;45308;-71
2024/01/27 00:42:24;;;;;;;;;74.50;55.25;;;;;-144.24;100.00;114865.94;5039193;28;45471;-75
2024/01/27 00:44:50;;;;;;;;;83.75;58.25;;;;;-144.24;100.00;114865.94;5038194;28;59425;-73
2024/01/27 00:47:15;;;;;;;;;79.50;59.75;;;;;-144.24;100.00;114865.94;5037967;28;66415;-73
2024/01/27 00:49:41;;;;;;;;;82.00;58.25;;;;;-144.24;100.00;114865.94;5038795;28;45322;-71
2024/01/27 00:52:06;;;;;;;;;87.00;61.50;;;;;-144.24;100.00;114865.94;5037248;28;67260;-72
2024/01/27 00:54:31;;;;;;;;;80.25;58.00;;;;;-144.24;100.00;114865.94;5038062;28;60371;-74
2024/01/27 00:56:57;;;;;;;;;75.00;58.25;;;;;-144.24;100.00;114865.94;5037013;28;48540;-71
2024/01/27 00:59:22;;;;;;;;;77.25;55.50;;;;;-144.24;100.00;114865.94;5020839;28;46755;-73
2024/01/27 01:01:47;;;;;;;;;69.75;52.75;;;;;-144.24;100.00;114865.94;5037413;28;64136;-71
2024/01/27 01:04:13;;;;;;;;;71.00;51.75;;;;;-144.24;100.00;114865.94;5020786;28;45458;-71
2024/01/27 01:06:40;;;;;;;;;68.00;51.75;;;;;-144.24;100.00;114865.94;5018651;28;45499;-71
2024/01/27 01:09:05;;;;;;;;;67.75;50.25;;;;;-144.24;100.00;114865.94;5035561;28;45439;-72
2024/01/27 01:11:30;;;;;;;;;76.25;55.75;;;;;-144.24;100.00;114865.94;5038080;28;51360;-71
2024/01/27 01:13:56;;;;;;;;;66.75;49.25;;;;;-144.24;100.00;114865.94;5037221;28;51077;-72
2024/01/27 01:16:21;;;;;;;;;62.75;49.75;;;;;-144.24;100.00;114865.94;5019937;28;54395;-74
2024/01/27 01:18:46;;;;;;;;;61.50;46.50;;;;;-144.24;100.00;114865.94;5038303;28;45740;-71
2024/01/27 01:21:12;;;;;;;;;66.00;51.75;;;;;-144.24;100.00;114865.94;5020544;28;45519;-71
2024/01/27 01:23:37;;;;;;;;;55.25;45.25;;;;;-144.24;100.00;114865.94;5037640;28;65727;-71
2024/01/27 01:26:02;;;;;;;;;64.00;49.00;;;;;-144.24;100.00;114865.94;5037143;28;68119;-72
2024/01/27 01:28:28;;;;;;;;;63.00;50.50;;;;;-144.24;100.00;114865.94;5020448;28;45310;-71
2024/01/27 01:30:53;;;;;;;;;64.00;50.75;;;;;-144.24;100.00;114865.94;5020232;28;45241;-71
2024/01/27 01:33:19;;;;;;;;;60.25;46.25;;;;;-144.24;100.00;114865.94;5037370;28;62984;-72
2024/01/27 01:35:44;;;;;;;;;69.50;53.00;;;;;-144.24;100.00;114865.94;5019750;28;46088;-71
2024/01/27 01:38:09;;;;;;;;;67.25;50.50;;;;;-144.24;100.00;114865.94;5036768;28;68820;-74
2024/01/27 01:40:35;;;;;;;;;62.25;50.50;;;;;-144.24;100.00;114865.94;5019977;28;68470;-72
2024/01/27 01:43:00;;;;;;;;;63.75;50.50;;;;;-144.24;100.00;114865.94;5019349;28;45618;-71
2024/01/27 01:45:26;;;;;;;;;43.75;26.50;;;;;-144.24;100.00;114865.94;5037373;28;46544;-72
2024/01/27 01:47:51;;;;;;;;;67.00;50.25;;;;;-144.24;100.00;114865.94;5036450;28;45551;-72
2024/01/27 01:50:17;;;;;;;;;56.00;46.00;;;;;-144.24;100.00;114865.94;5019399;28;45301;-71
2024/01/27 01:52:44;;;;;;;;;68.50;54.00;;;;;-144.24;100.00;114865.94;5019290;28;45313;-72
2024/01/27 01:55:09;;;;;;;;;71.75;52.75;;;;;-144.24;100.00;114865.94;5037060;28;45492;-70
2024/01/27 01:57:35;;;;;;;;;60.00;49.00;;;;;-144.24;100.00;114865.94;5019152;28;64354;-74
2024/01/27 02:00:01;;;;;;;;;68.00;51.25;;;;;-144.24;100.00;114865.94;5019890;28;45369;-71
2024/01/27 02:02:26;;;;;;;;;72.50;52.25;;;;;-144.24;100.00;114865.94;5002593;28;49250;-73
2024/01/27 02:04:51;;;;;;;;;74.75;53.00;;;;;-144.24;100.00;114865.94;5018736;28;72573;-71
2024/01/27 02:07:17;;;;;;;;;53.75;45.50;;;;;-144.24;100.00;114865.94;5037748;28;45426;-74
2024/01/27 02:09:42;;;;;;;;;64.25;47.75;;;;;-144.24;100.00;114865.94;5036383;28;46022;-72
2024/01/27 02:12:07;;;;;;;;;63.25;48.50;;;;;-144.24;100.00;114865.94;5019681;28;45289;-71
2024/01/27 02:14:33;;;;;;;;;63.50;50.50;;;;;-144.24;100.00;114865.94;5037254;28;46577;-72
2024/01/27 02:16:58;;;;;;;;;64.75;51.00;;;;;-144.24;100.00;114865.94;5036831;28;64924;-74
2024/01/27 02:19:24;;;;;;;;;64.50;48.25;;;;;-144.24;100.00;114865.94;5035333;28;45230;-70
2024/01/27 02:21:49;;;;;;;;;60.75;47.50;;;;;-144.24;100.00;114865.94;5019721;28;53327;-72
2024/01/27 02:24:14;;;;;;;;;68.50;48.75;;;;;-144.24;100.00;114865.94;5016824;28;45603;-73
2024/01/27 02:26:40;;;;;;;;;57.25;45.25;;;;;-144.24;100.00;114865.94;5034160;28;50855;-71
2024/01/27 02:29:05;;;;;;;;;46.50;42.75;;;;;-144.24;100.00;114865.94;5034703;28;65521;-74
2024/01/27 02:31:30;;;;;;;;;60.75;50.00;;;;;-144.24;100.00;114865.94;5036341;28;66160;-71
2024/01/27 02:33:56;;;;;;;;;66.50;51.50;;;;;-144.24;100.00;114865.94;5034957;28;73482;-72
2024/01/27 02:36:21;;;;;;;;;63.75;51.50;;;;;-144.24;100.00;114865.94;5016079;28;67998;-71
2024/01/27 02:38:46;;;;;;;;;63.50;50.00;;;;;-144.24;100.00;114865.94;5035171;28;65525;-73
2024/01/27 02:41:12;;;;;;;;;63.25;47.00;;;;;-144.24;100.00;114865.94;5035983;28;45296;-71
2024/01/27 02:43:37;;;;;;;;;55.50;41.75;;;;;-144.24;100.00;114865.94;5017746;28;46517;-74
2024/01/27 02:46:11;;;;;;;;;62.50;52.00;;;;;-144.24;100.00;114865.94;5018950;28;45843;-71
2024/01/27 02:48:40;;;;;;;;;67.00;50.50;;;;;-144.24;100.00;114865.94;5036791;28;45497;-72
2024/01/27 02:51:05;;;;;;;;;73.50;53.25;;;;;-144.24;100.00;114865.94;5035479;28;45598;-71
2024/01/27 02:53:30;;;;;;;;;59.50;49.00;;;;;-144.24;100.00;114865.94;5035398;28;70921;-72
2024/01/27 02:55:56;;;;;;;;;59.25;45.00;;;;;-144.24;100.00;114865.94;5036386;28;45382;-71
2024/01/27 02:58:22;;;;;;;;;58.25;46.25;;;;;-144.24;100.00;114865.94;5035566;28;68512;-73
2024/01/27 03:00:47;;;;;;;;;62.50;47.50;;;;;-144.24;100.00;114865.94;5018809;28;45194;-73
2024/01/27 03:03:12;;;;;;;;;65.75;49.75;;;;;-144.24;100.00;114865.94;5034331;28;46569;-73
2024/01/27 03:05:38;;;;;;;;;65.50;49.50;;;;;-144.24;100.00;114865.94;5036331;28;58192;-74
2024/01/27 03:08:03;;;;;;;;;62.25;44.75;;;;;-144.24;100.00;114865.94;5035493;28;63522;-73
2024/01/27 03:10:29;;;;;;;;;59.25;44.00;;;;;-144.24;100.00;114865.94;5034030;28;45419;-72
2024/01/27 03:12:54;;;;;;;;;57.50;45.50;;;;;-144.24;100.00;114865.94;5033681;28;46451;-71
2024/01/27 03:15:19;;;;;;;;;54.00;46.25;;;;;-144.24;100.00;114865.94;5036094;28;45265;-71
2024/01/27 03:17:45;;;;;;;;;51.00;43.50;;;;;-144.24;100.00;114865.94;5035341;28;58910;-71
2024/01/27 03:20:10;;;;;;;;;54.00;43.50;;;;;-144.24;100.00;114865.94;5035309;28;57416;-74
2024/01/27 03:22:36;;;;;;;;;52.25;41.75;;;;;-144.24;100.00;114865.94;5031860;28;45789;-71
2024/01/27 03:25:01;;;;;;;;;56.50;43.75;;;;;-144.24;100.00;114865.94;5035722;28;45487;-72
2024/01/27 03:27:26;;;;;;;;;49.00;42.50;;;;;-144.24;100.00;114865.94;5033579;28;57157;-71
2024/01/27 03:29:52;;;;;;;;;60.75;42.75;;;;;-144.24;100.00;114865.94;5035195;28;61899;-73
2024/01/27 03:32:17;;;;;;;;;50.50;42.75;;;;;-144.24;100.00;114865.94;5034368;28;73015;-71
2024/01/27 03:34:45;;;;;;;;;47.50;39.25;;;;;-144.24;100.00;114865.94;5017994;28;45512;-71
2024/01/27 03:37:10;;;;;;;;;41.50;36.75;;;;;-144.24;100.00;114865.94;5027734;28;45432;-74
2024/01/27 03:39:35;;;;;;;;;50.00;40.75;;;;;-144.24;100.00;114865.94;5035024;28;45388;-73
2024/01/27 03:42:01;;;;;;;;;54.25;41.00;;;;;-144.24;100.00;114865.94;5026451;28;46286;-73
2024/01/27 03:44:26;;;;;;;;;52.00;37.00;;;;;-144.24;100.00;114865.94;5034373;28;67406;-71
2024/01/27 03:46:51;;;;;;;;;30.00;26.50;;;;;-144.24;100.00;114865.94;5035261;28;60540;-72
2024/01/27 03:49:17;;;;;;;;;42.50;38.50;;;;;-144.24;100.00;114865.94;5018293;28;47080;-74
2024/01/27 03:51:42;;;;;;;;;31.00;25.50;;;;;-144.24;100.00;114865.94;5034259;28;73728;-74
2024/01/27 03:54:08;;;;;;;;;38.75;31.25;;;;;-144.24;100.00;114865.94;5035531;28;71359;-72
2024/01/27 03:56:33;;;;;;;;;30.75;28.75;;;;;-144.24;100.00;114865.94;5026943;28;45522;-70
2024/01/27 03:58:58;;;;;;;;;31.75;27.75;;;;;-144.24;100.00;114865.94;5035246;28;66433;-71
2024/01/27 04:01:24;;;;;;;;;28.75;21.25;;;;;-144.24;100.00;114865.94;5034242;28;68963;-74
2024/01/27 04:03:49;;;;;;;;;38.75;28.25;;;;;-144.24;100.00;114865.94;5035799;28;45496;-73
2024/01/27 04:06:15;;;;;;;;;28.75;25.50;;;;;-144.24;100.00;114865.94;5034486;28;64948;-71
2024/01/27 04:08:43;;;;;;;;;38.25;29.75;;;;;-144.24;100.00;114865.94;5034866;28;60914;-74
2024/01/27 04:11:09;;;;;;;;;32.25;29.75;;;;;-144.24;100.00;114865.94;5024337;28;45369;-74
2024/01/27 04:13:36;;;;;;;;;37.25;32.50;;;;;-144.24;100.00;114865.94;5035240;28;45514;-74
2024/01/27 04:16:01;;;;;;;;;44.25;32.25;;;;;-144.24;100.00;114865.94;5028266;28;45477;-71
2024/01/27 04:18:26;;;;;;;;;26.00;24.75;;;;;-144.24;100.00;114865.94;5021438;28;45355;-71
2024/01/27 04:20:52;;;;;;;;;32.25;25.75;;;;;-144.24;100.00;114865.94;5038290;28;45948;-71
2024/01/27 04:23:17;;;;;;;;;31.75;24.75;;;;;-144.24;100.00;114865.94;5026255;28;68875;-73
2024/01/27 04:25:43;;;;;;;;;40.25;31.00;;;;;-144.24;100.00;114865.94;5037114;28;67174;-74
2024/01/27 04:28:10;;;;;;;;;43.00;33.25;;;;;-144.24;100.00;114865.94;5038215;28;45593;-72
2024/01/27 04:30:36;;;;;;;;;37.00;28.25;;;;;-144.24;100.00;114865.94;5038299;28;46616;-71
2024/01/27 04:33:02;;;;;;;;;37.50;35.00;;;;;-144.24;100.00;114865.94;5019567;28;67209;-72
2024/01/27 04:35:27;;;;;;;;;38.00;27.00;;;;;-144.24;100.00;114865.94;5021001;28;45459;-71
2024/01/27 04:37:53;;;;;;;;;39.25;33.50;;;;;-144.24;100.00;114865.94;5020360;28;45472;-71
2024/01/27 04:40:18;;;;;;;;;47.00;39.25;;;;;-144.24;100.00;114865.94;5036486;28;67683;-75
2024/01/27 04:42:43;;;;;;;;;36.00;33.50;;;;;-144.24;100.00;114865.94;5018921;28;45585;-71
2024/01/27 04:45:09;;;;;;;;;29.00;27.75;;;;;-144.24;100.00;114865.94;5032852;28;50926;-71
2024/01/27 04:47:34;;;;;;;;;24.50;15.25;;;;;-144.24;100.00;114865.94;5019535;28;45479;-74
2024/01/27 04:50:00;;;;;;;;;47.25;38.00;;;;;-144.24;100.00;114865.94;5038206;28;46974;-73
2024/01/27 04:52:26;;;;;;;;;41.00;35.00;;;;;-144.24;100.00;114865.94;5037169;28;70824;-73
2024/01/27 04:54:51;;;;;;;;;36.75;31.75;;;;;-144.24;100.00;114865.94;5038655;28;45230;-74
2024/01/27 04:57:17;;;;;;;;;43.75;40.00;;;;;-144.24;100.00;114865.94;5020998;28;45412;-73
2024/01/27 04:59:42;;;;;;;;;41.75;35.00;;;;;-144.24;100.00;114865.94;5019213;28;70015;-73
2024/01/27 05:02:07;;;;;;;;;38.50;34.00;;;;;-144.24;100.00;114865.94;5027393;28;67749;-71
2024/01/27 05:04:33;;;;;;;;;44.75;37.75;;;;;-144.24;100.00;114865.94;5036722;28;67272;-73
2024/01/27 05:06:58;;;;;;;;;41.50;38.00;;;;;-144.24;100.00;114865.94;5035824;28;58718;-71
2024/01/27 05:09:24;;;;;;;;;46.00;39.50;;;;;-144.24;100.00;114865.94;5018879;28;72275;-72
2024/01/27 05:11:52;;;;;;;;;40.25;32.50;;;;;-144.24;100.00;114865.94;5037871;28;45383;-71
2024/01/27 05:14:18;;;;;;;;;51.50;39.00;;;;;-144.24;100.00;114865.94;5037553;28;45348;-71
2024/01/27 05:16:43;;;;;;;;;40.25;37.75;;;;;-144.24;100.00;114865.94;5020445;28;45282;-71
2024/01/27 05:19:10;;;;;;;;;46.75;38.75;;;;;-144.24;100.00;114865.94;5023760;28;71312;-74
2024/01/27 05:21:35;;;;;;;;;40.00;38.00;;;;;-144.24;100.00;114865.94;5020210;28;45381;-72
2024/01/27 05:24:00;;;;;;;;;46.00;39.00;;;;;-144.24;100.00;114865.94;5019935;28;45301;-72
2024/01/27 05:26:26;;;;;;;;;47.75;40.25;;;;;-144.24;100.00;114865.94;5036273;28;62913;-73
2024/01/27 05:28:51;;;;;;;;;45.75;37.75;;;;;-144.24;100.00;114865.94;5037702;28;45960;-71
2024/01/27 05:31:16;;;;;;;;;58.50;40.75;;;;;-144.24;100.00;114865.94;5036035;28;66147;-72
2024/01/27 05:33:42;;;;;;;;;48.25;36.50;;;;;-144.24;100.00;114865.94;5038044;28;45655;-71
2024/01/27 05:36:08;;;;;;;;;53.25;42.25;;;;;-144.24;100.00;114865.94;5036175;28;63818;-74
2024/01/27 05:38:33;;;;;;;;;40.25;35.25;;;;;-144.24;100.00;114865.94;5036864;28;67571;-73
2024/01/27 05:41:02;;;;;;;;;50.25;42.75;;;;;-144.24;100.00;114865.94;5019133;28;47959;-72
2024/01/27 05:43:27;;;;;;;;;47.00;37.50;;;;;-144.24;100.00;114865.94;5037532;28;45441;-71
2024/01/27 05:45:53;;;;;;;;;47.75;39.00;;;;;-144.24;100.00;114865.94;5038225;28;45637;-73
2024/01/27 05:48:18;;;;;;;;;59.50;40.75;;;;;-144.24;100.00;114865.94;5036719;28;45782;-71
2024/01/27 05:50:43;;;;;;;;;42.50;40.25;;;;;-144.24;100.00;114865.94;5036520;28;62952;-73
2024/01/27 05:53:09;;;;;;;;;46.00;39.25;;;;;-144.24;100.00;114865.94;5037655;28;45355;-71
2024/01/27 05:55:34;;;;;;;;;60.00;43.00;;;;;-144.24;100.00;114865.94;5037500;28;51366;-73
2024/01/27 05:58:00;;;;;;;;;47.00;39.50;;;;;-144.24;100.00;114865.94;5036528;28;70621;-72
2024/01/27 06:00:25;;;;;;;;;56.25;43.75;;;;;-144.24;100.00;114865.94;5036652;28;62650;-71
2024/01/27 06:02:51;;;;;;;;;53.00;41.25;;;;;-144.24;100.00;114865.94;5018909;28;63171;-73
2024/01/27 06:05:16;;;;;;;;;51.75;39.25;;;;;-144.24;100.00;114865.94;5037321;28;45572;-74
2024/01/27 06:07:42;;;;;;;;;52.00;40.75;;;;;-144.24;100.00;114865.94;5036496;28;68393;-72
2024/01/27 06:10:08;;;;;;;;;60.75;48.50;;;;;-144.24;100.00;114865.94;5036720;28;45384;-72
2024/01/27 06:12:34;;;;;;;;;65.00;47.00;;;;;-144.24;100.00;114865.94;5036379;28;45584;-73
2024/01/27 06:15:00;;;;;;;;;63.50;44.00;;;;;-144.24;100.00;114865.94;5037360;28;45385;-72
2024/01/27 06:17:25;;;;;;;;;61.25;45.75;;;;;-144.24;100.00;114865.94;5036239;28;46477;-71
2024/01/27 06:19:50;;;;;;;;;60.00;48.00;;;;;-144.24;100.00;114865.94;5037509;28;45450;-72
2024/01/27 06:22:15;;;;;;;;;56.25;44.50;;;;;-144.24;100.00;114865.94;5036041;28;60295;-72
2024/01/27 06:24:43;;;;;;;;;55.50;44.00;;;;;-144.24;100.00;114865.94;5037189;28;47575;-72
2024/01/27 06:27:08;;;;;;;;;56.50;44.25;;;;;-144.24;100.00;114865.94;5019111;28;47432;-71
2024/01/27 06:29:33;;;;;;;;;54.75;43.25;;;;;-144.24;100.00;114865.94;5035811;28;65372;-71
2024/01/27 06:31:59;;;;;;;;;57.50;44.50;;;;;-144.24;100.00;114865.94;5141284;22;45575;-73
2024/01/27 06:34:24;;;;;;;;;58.75;45.75;;;;;-144.24;100.00;114865.94;5035328;28;45418;-71
2024/01/27 06:36:49;;;;;;;;;65.00;48.00;;;;;-144.24;100.00;114865.94;5029118;28;63849;-73
2024/01/27 06:39:15;;;;;;;;;63.50;48.50;;;;;-144.24;100.00;114865.94;5034713;28;70579;-74
2024/01/27 06:41:40;;;;;;;;;63.75;49.00;;;;;-144.24;100.00;114865.94;5017723;28;62145;-72
2024/01/27 06:44:06;;;;;;;;;49.00;40.50;;;;;-144.24;100.00;114865.94;5030318;28;45534;-74
2024/01/27 06:46:31;;;;;;;;;59.75;45.75;;;;;-144.24;100.00;114865.94;5036136;28;46134;-73
2024/01/27 06:48:56;;;;;;;;;65.75;47.75;;;;;-144.24;100.00;114865.94;5035404;28;65810;-70
2024/01/27 06:51:22;;;;;;;;;63.25;47.75;;;;;-144.24;100.00;114865.94;5034725;28;60792;-73
2024/01/27 06:53:48;;;;;;;;;64.25;47.75;;;;;-144.24;100.00;114865.94;5017733;28;45584;-72
2024/01/27 06:56:13;;;;;;;;;57.00;47.00;;;;;-144.24;100.00;114865.94;5018221;28;46663;-72
2024/01/27 06:58:39;;;;;;;;;66.00;48.50;;;;;-144.24;100.00;114865.94;5034477;28;71479;-72
2024/01/27 07:01:06;;;;;;;;;56.75;44.50;;;;;-144.24;100.00;114865.94;5017220;28;66592;-73
2024/01/27 07:03:32;;;;;;;;;58.50;45.00;;;;;-144.24;100.00;114865.94;5022192;28;45452;-73
2024/01/27 07:06:00;;;;;;;;;56.25;41.75;;;;;-144.24;100.00;114865.94;5035610;28;45900;-72
2024/01/27 07:08:26;;;;;;;;;45.50;35.25;;;;;-144.24;100.00;114865.94;5035820;28;45302;-72
2024/01/27 07:10:51;;;;;;;;;39.50;32.50;;;;;-144.24;100.00;114865.94;5018120;28;45453;-72
2024/01/27 07:13:17;;;;;;;;;36.50;30.25;;;;;-144.24;100.00;114865.94;5034988;28;66677;-71
2024/01/27 07:15:42;;;;;;;;;38.00;31.50;;;;;-144.24;100.00;114865.94;5018160;28;46628;-72
2024/01/27 07:18:08;;;;;;;;;40.25;31.00;;;;;-144.24;100.00;114865.94;5034656;28;69258;-73
2024/01/27 07:20:33;;;;;;;;;27.25;23.50;;;;;-144.24;100.00;114865.94;5034226;28;45350;-72
2024/01/27 07:22:59;;;;;;;;;37.75;31.75;;;;;-144.24;100.00;114865.94;5035809;28;45599;-72
2024/01/27 07:25:24;;;;;;;;;31.75;26.50;;;;;-144.24;100.00;114865.94;5033683;28;46833;-71
2024/01/27 07:27:50;;;;;;;;;32.25;28.25;;;;;-144.24;100.00;114865.94;5034509;28;68134;-74
2024/01/27 07:30:15;;;;;;;;;35.00;31.50;;;;;-144.24;100.00;114865.94;5034437;28;66189;-71
2024/01/27 07:32:41;;;;;;;;;32.50;27.75;;;;;-144.24;100.00;114865.94;5014302;28;46413;-72
2024/01/27 07:35:06;;;;;;;;;35.75;28.25;;;;;-144.24;100.00;114865.94;5015678;28;45514;-70
2024/01/27 07:37:32;;;;;;;;;43.00;30.00;;;;;-144.24;100.00;114865.94;5015457;28;45249;-72
2024/01/27 07:39:57;;;;;;;;;35.25;31.50;;;;;-144.24;100.00;114865.94;5013175;28;60196;-72
2024/01/27 07:42:22;;;;;;;;;40.50;34.75;;;;;-144.24;100.00;114865.94;5014670;28;58483;-72
2024/01/27 07:44:49;;;;;;;;;47.25;35.25;;;;;-144.24;100.00;114865.94;5014375;28;71675;-72
2024/01/27 07:47:14;;;;;;;;;38.25;32.50;;;;;-144.24;100.00;114865.94;5014144;28;45502;-72
2024/01/27 07:49:40;;;;;;;;;35.50;32.00;;;;;-144.24;100.00;114865.94;5015993;28;45523;-75
2024/01/27 07:52:06;;;;;;;;;39.75;32.25;;;;;-144.24;100.00;114865.94;5017031;28;45379;-74
2024/01/27 07:54:32;;;;;;;;;43.50;33.50;;;;;-144.24;100.00;114865.94;5033521;28;45890;-75
2024/01/27 07:56:58;;;;;;;;;38.00;35.00;;;;;-144.24;100.00;114865.94;5017750;28;45500;-72
2024/01/27 07:59:24;;;;;;;;;37.25;35.00;;;;;-144.24;100.00;114865.94;5015487;28;45450;-71
2024/01/27 08:01:49;;;;;;;;;46.75;38.50;;;;;-144.24;100.00;114865.94;5017014;28;59999;-72
2024/01/27 08:04:15;;;;;;;;;40.00;34.75;;;;;-144.24;100.00;114865.94;5014755;28;70791;-72
2024/01/27 08:06:49;;;;;;;;;38.00;35.50;;;;;-144.24;100.00;114865.94;5008829;28;45824;-73
2024/01/27 08:09:15;;;;;;;;;34.00;34.00;;;;;-144.24;100.00;114865.94;5015408;28;46616;-70
2024/01/27 08:11:40;;;;;;;;;34.25;33.75;;;;;-144.24;100.00;114865.94;5015475;28;45403;-70
2024/01/27 08:14:05;;;;;;;;;43.50;36.00;;;;;-144.24;100.00;114865.94;5013897;28;52194;-71
2024/01/27 08:16:31;;;;;;;;;45.75;36.75;;;;;-144.24;100.00;114865.94;5014595;28;72714;-70
2024/01/27 08:18:56;;;;;;;;;43.25;30.50;;;;;-144.24;100.00;114865.94;5012908;28;45505;-70
2024/01/27 08:21:22;;;;;;;;;47.00;37.25;;;;;-144.24;100.00;114865.94;5014543;28;62542;-71
2024/01/27 08:23:47;;;;;;;;;49.75;40.50;;;;;-144.24;100.00;114865.94;5014938;28;45962;-71
2024/01/27 08:26:13;;;;;;;;;47.50;37.75;;;;;-144.24;100.00;114865.94;5013683;28;59357;-75
2024/01/27 08:28:38;;;;;;;;;44.50;37.00;;;;;-144.24;100.00;114865.94;5014848;28;46133;-73
2024/01/27 08:31:04;;;;;;;;;41.50;36.75;;;;;-144.24;100.00;114865.94;5013060;28;45575;-74
2024/01/27 08:33:30;;;;;;;;;43.00;34.75;;;;;-144.24;100.00;114865.94;5029295;28;45651;-72
2024/01/27 08:35:55;;;;;;;;;44.00;39.75;;;;;-144.24;100.00;114865.94;5031559;28;45540;-73
2024/01/27 08:38:20;;;;;;;;;48.50;41.00;;;;;-144.24;100.00;114865.94;5035058;28;63480;-74
2024/01/27 08:40:46;;;;;;;;;55.75;44.00;;;;;-144.24;100.00;114865.94;5034934;28;45639;-74
2024/01/27 08:43:11;;;;;;;;;38.50;28.25;;;;;-144.24;100.00;114865.94;5034978;28;45554;-72
2024/01/27 08:45:38;;;;;;;;;45.25;40.50;;;;;-144.24;100.00;114865.94;5036389;28;45289;-73
2024/01/27 08:48:04;;;;;;;;;47.50;39.25;;;;;-144.24;100.00;114865.94;5015962;28;47489;-74
2024/01/27 08:50:29;;;;;;;;;38.50;31.25;;;;;-144.24;100.00;114865.94;5019077;28;45405;-72
2024/01/27 08:52:54;;;;;;;;;44.00;32.75;;;;;-144.24;100.00;114865.94;5035305;28;71140;-73
2024/01/27 08:55:23;;;;;;;;;46.00;38.50;;;;;-144.24;100.00;114865.94;5017404;28;65642;-72
2024/01/27 08:57:49;;;;;;;;;44.75;38.75;;;;;-144.24;100.00;114865.94;5034627;28;45540;-73
2024/01/27 09:00:16;;;;;;;;;52.50;41.25;;;;;-144.24;100.00;114865.94;5034883;28;59117;-72
2024/01/27 09:02:41;;;;;;;;;49.50;39.75;;;;;-144.24;100.00;114865.94;5035322;28;45685;-73
2024/01/27 09:05:07;;;;;;;;;41.00;37.50;;;;;-144.24;100.00;114865.94;5036447;28;45577;-72
2024/01/27 09:07:33;;;;;;;;;47.25;40.00;;;;;-144.24;100.00;114865.94;5035354;28;62708;-74
2024/01/27 09:09:59;;;;;;;;;52.75;45.00;;;;;-144.24;100.00;114865.94;5037668;28;45408;-73
2024/01/27 09:12:24;;;;;;;;;49.00;38.00;;;;;-144.24;100.00;114865.94;5036307;28;62950;-73
2024/01/27 09:14:49;;;;;;;;;43.25;38.25;;;;;-144.24;100.00;114865.94;5034891;28;59480;-72
2024/01/27 09:17:15;;;;;;;;;50.50;43.00;;;;;-144.24;100.00;114865.94;5035582;28;45447;-73
2024/01/27 09:19:42;;;;;;;;;43.50;37.50;;;;;-144.24;100.00;114865.94;5017911;28;45438;-73
2024/01/27 09:22:07;;;;;;;;;42.75;37.00;;;;;-144.24;100.00;114865.94;5029070;28;73483;-72
2024/01/27 09:24:32;;;;;;;;;37.75;36.50;;;;;-144.24;100.00;114865.94;5035109;28;72063;-72
2024/01/27 09:26:58;;;;;;;;;54.25;40.75;;;;;-144.24;100.00;114865.94;5035522;28;67801;-72
2024/01/27 09:29:23;;;;;;;;;43.00;39.00;;;;;-144.24;100.00;114865.94;5017103;28;45533;-73
2024/01/27 09:31:49;;;;;;;;;54.00;42.00;;;;;-144.24;100.00;114865.94;5033466;28;46796;-72
2024/01/27 09:34:14;;;;;;;;;46.75;40.25;;;;;-144.24;100.00;114865.94;5014161;28;72311;-72
2024/01/27 09:36:39;;;;;;;;;51.00;42.00;;;;;-144.24;100.00;114865.94;5017658;28;63959;-72
2024/01/27 09:39:05;;;;;;;;;54.75;39.25;;;;;-144.24;100.00;114865.94;5017473;28;63494;-71
2024/01/27 09:41:34;;;;;;;;;52.00;42.25;;;;;-144.24;100.00;114865.94;5034869;28;45861;-73
2024/01/27 09:44:02;;;;;;;;;50.25;39.75;;;;;-144.24;100.00;114865.94;5014441;28;47358;-73
2024/01/27 09:46:29;;;;;;;;;42.75;39.25;;;;;-144.24;100.00;114865.94;5034427;28;45379;-72
2024/01/27 09:48:54;;;;;;;;;51.00;41.25;;;;;-144.24;100.00;114865.94;5016019;28;45579;-73
2024/01/27 09:51:20;;;;;;;;;48.25;38.75;;;;;-144.24;100.00;114865.94;5035448;28;45841;-72
2024/01/27 09:53:45;;;;;;;;;46.75;41.25;;;;;-144.24;100.00;114865.94;5036273;28;45470;-73
2024/01/27 09:56:17;;;;;;;;;53.00;41.00;;;;;-144.24;100.00;114865.94;5035475;28;58324;-72
2024/01/27 09:58:43;;;;;;;;;47.75;38.50;;;;;-144.24;100.00;114865.94;5016334;28;45417;-72
2024/01/27 10:01:08;;;;;;;;;49.00;40.50;;;;;-144.24;100.00;114865.94;5016467;28;70090;-73
2024/01/27 10:03:34;;;;;;;;;42.25;38.50;;;;;-144.24;100.00;114865.94;5014914;28;72201;-72
2024/01/27 10:06:00;;;;;;;;;52.25;41.00;;;;;-144.24;100.00;114865.94;5031268;28;61281;-71
2024/01/27 10:08:25;;;;;;;;;45.75;34.00;;;;;-144.24;100.00;114865.94;5034475;28;61933;-73
2024/01/27 10:10:57;;;;;;;;;44.00;38.25;;;;;-144.24;100.00;114865.94;5035065;28;46284;-72
2024/01/27 10:13:26;;;;;;;;;45.25;38.75;;;;;-144.24;100.00;114865.94;5030525;28;45392;-73
2024/01/27 10:16:05;;;;;;;;;41.00;38.75;;;;;-144.24;100.00;114865.94;5017815;28;45376;-72
2024/01/27 10:18:31;;;;;;;;;42.25;38.25;;;;;-144.24;100.00;114865.94;5001486;28;45487;-73
2024/01/27 10:20:57;;;;;;;;;42.75;39.75;;;;;-144.24;100.00;114865.94;5015908;28;45991;-72
2024/01/27 10:23:23;;;;;;;;;49.00;41.50;;;;;-144.24;100.00;114865.94;5016716;28;45498;-72
2024/01/27 10:25:49;;;;;;;;;48.25;37.50;;;;;-144.24;100.00;114865.94;5032418;28;45571;-72
2024/01/27 10:28:14;;;;;;;;;44.50;39.75;;;;;-144.24;100.00;114865.94;5033897;28;46658;-72
2024/01/27 10:30:40;;;;;;;;;44.00;36.50;;;;;-144.24;100.00;114865.94;5014797;28;45725;-72
2024/01/27 10:33:07;;;;;;;;;48.25;38.00;;;;;-144.24;100.00;114865.94;5017732;28;45460;-73
2024/01/27 10:35:33;;;;;;;;;48.75;37.25;;;;;-144.24;100.00;114865.94;5034254;28;45400;-73
2024/01/27 10:37:58;;;;;;;;;36.25;34.00;;;;;-144.24;100.00;114865.94;5032265;28;58787;-72
2024/01/27 10:40:24;;;;;;;;;46.25;38.00;;;;;-144.24;100.00;114865.94;5015597;28;45821;-74